Waldo, Wisconsin
Current Conditions -  °F | °C
As of 8:53 PM on Monday 20 Oct 2014 (Local Time) from KSBM Reporting Station
Overcast Overcast  
Wind Chill:   Ceiling: 4100
Heat Index:   Visibility: 10mi
Dew Point:   Wind: 9mph
Humidity: 80%   Direction: 330°NNW
Pressure: 30"   Gusts: NA
Location:  43.67°N, 87.95°W
Report Text: KSBM 210153Z AUTO 33008KT 10SM OVC041 09/06 A3000 RMK AO2 SLP162 T00940061
Loading
Personal Weather Stations






























Interactive Weather Map
Tropical Storm Tracking
New forecast layout! Learn more

10-Day Weather Forecast

Advertisements
Track Severe Weather on mobile